Time;durP1;ratioP1;P1;durP2;ratioP2;P2;SDS_P1;SDS_P2;PMS_P1;PMS_P2;Temp;Humidity;BMP_temperature;BMP_pressure;BME280_temperature;BME280_humidity;BME280_pressure;Samples;Min_cycle;Max_cycle;Signal;HPM_P1;HPM_P2
2022/03/14 00:02:21;;;;;;;3.23;2.10;;;;;11.90;101205.00;;;;5075803;28;20257;-68
2022/03/14 00:05:08;;;;;;;2.30;1.80;;;;;12.00;101212.00;;;;5095183;28;20242;-68
2022/03/14 00:07:55;;;;;;;2.50;1.90;;;;;12.00;101205.00;;;;5103598;28;20369;-69
2022/03/14 00:10:45;;;;;;;2.83;1.70;;;;;11.90;101197.00;;;;5101403;28;20237;-69
2022/03/14 00:13:33;;;;;;;4.07;1.87;;;;;11.90;101199.00;;;;5100454;28;20277;-69
2022/03/14 00:16:25;;;;;;;2.70;1.90;;;;;11.90;101207.00;;;;5099351;28;20297;-70
2022/03/14 00:19:13;;;;;;;2.37;2.00;;;;;11.80;101212.00;;;;5089451;28;20768;-69
2022/03/14 00:22:00;;;;;;;3.27;1.97;;;;;11.80;101217.00;;;;5099184;28;20223;-68
2022/03/14 00:24:46;;;;;;;3.63;1.90;;;;;11.80;101206.00;;;;5103653;28;20230;-66
2022/03/14 00:27:35;;;;;;;1.93;1.80;;;;;11.70;101213.00;;;;5100315;28;20226;-68
2022/03/14 00:30:23;;;;;;;3.00;2.10;;;;;11.80;101203.00;;;;5089073;28;20701;-69
2022/03/14 00:33:09;;;;;;;3.13;2.17;;;;;11.80;101201.00;;;;5101219;28;20235;-70
2022/03/14 00:35:56;;;;;;;3.53;2.07;;;;;11.70;101204.00;;;;5103431;28;20397;-69
2022/03/14 00:38:43;;;;;;;2.00;1.80;;;;;11.70;101205.00;;;;5071220;28;20227;-68
2022/03/14 00:41:29;;;;;;;2.83;2.00;;;;;11.70;101205.00;;;;5090129;28;20353;-68
2022/03/14 00:44:16;;;;;;;2.60;1.90;;;;;11.60;101213.00;;;;5096412;28;20222;-69
2022/03/14 00:47:04;;;;;;;2.53;1.83;;;;;11.60;101214.00;;;;5107585;28;21050;-70
2022/03/14 00:49:50;;;;;;;3.40;2.20;;;;;11.60;101213.00;;;;5102252;28;20308;-67
2022/03/14 00:52:37;;;;;;;1.97;1.70;;;;;11.60;101219.00;;;;5092835;28;20852;-68
2022/03/14 00:55:23;;;;;;;2.73;1.77;;;;;11.50;101219.00;;;;5105257;28;20249;-68
2022/03/14 00:58:09;;;;;;;2.30;1.90;;;;;11.60;101225.00;;;;5107755;27;20223;-69
2022/03/14 01:00:56;;;;;;;2.77;2.00;;;;;11.60;101224.00;;;;5105076;28;20597;-69
2022/03/14 01:03:44;;;;;;;2.43;2.00;;;;;11.60;101203.00;;;;5101579;28;20269;-70
2022/03/14 01:06:30;;;;;;;3.10;2.23;;;;;11.50;101242.00;;;;5095915;28;20247;-69
2022/03/14 01:09:16;;;;;;;2.40;2.00;;;;;11.60;101242.00;;;;5084972;28;20349;-69
2022/03/14 01:12:03;;;;;;;2.27;1.67;;;;;11.50;101254.00;;;;5105428;27;20657;-69
2022/03/14 01:14:49;;;;;;;2.93;2.23;;;;;11.50;101250.00;;;;5098895;27;20350;-66
2022/03/14 01:17:36;;;;;;;2.63;1.80;;;;;11.40;101252.00;;;;5107857;28;20250;-68
2022/03/14 01:20:24;;;;;;;2.17;1.90;;;;;11.40;101244.00;;;;5095606;28;20324;-68
2022/03/14 01:23:12;;;;;;;3.20;2.03;;;;;11.50;101251.00;;;;5091529;28;20219;-68
2022/03/14 01:25:58;;;;;;;2.40;1.93;;;;;11.40;101251.00;;;;5084158;28;20235;-68
2022/03/14 01:28:45;;;;;;;2.20;1.80;;;;;11.40;101261.00;;;;5087285;28;20246;-68
2022/03/14 01:31:32;;;;;;;2.40;1.83;;;;;11.40;101272.00;;;;5072882;28;20382;-68
2022/03/14 01:34:19;;;;;;;2.83;2.10;;;;;11.40;101276.00;;;;5087132;28;20227;-69
2022/03/14 01:37:06;;;;;;;2.30;2.00;;;;;11.50;101279.00;;;;5087010;28;20223;-68
2022/03/14 01:39:53;;;;;;;2.53;2.00;;;;;11.50;101280.00;;;;5106928;27;20238;-69
2022/03/14 01:42:40;;;;;;;2.67;2.10;;;;;11.50;101289.00;;;;5107435;27;20772;-65
2022/03/14 01:45:26;;;;;;;3.63;2.20;;;;;11.60;101289.00;;;;5093003;28;20237;-68
2022/03/14 01:48:12;;;;;;;3.13;2.00;;;;;11.50;101282.00;;;;5087670;28;20215;-69
2022/03/14 01:50:58;;;;;;;3.40;2.20;;;;;11.50;101292.00;;;;5106421;28;20246;-69
2022/03/14 01:53:46;;;;;;;2.73;2.40;;;;;11.50;101286.00;;;;5087897;28;20223;-69
2022/03/14 01:56:32;;;;;;;2.90;2.00;;;;;11.70;101280.00;;;;5094340;28;20700;-67
2022/03/14 01:59:19;;;;;;;3.13;2.13;;;;;11.60;101284.00;;;;5090187;28;20990;-68
2022/03/14 02:02:06;;;;;;;4.20;2.40;;;;;11.60;101281.00;;;;5106291;28;20704;-69
2022/03/14 02:04:53;;;;;;;2.33;2.13;;;;;11.50;101287.00;;;;5102698;28;20708;-70
2022/03/14 02:07:39;;;;;;;2.83;2.23;;;;;11.50;101293.00;;;;5106402;28;20821;-70
2022/03/14 02:10:27;;;;;;;3.10;2.40;;;;;11.50;101300.00;;;;5091637;28;20239;-66
2022/03/14 02:13:13;;;;;;;3.63;2.53;;;;;11.60;101298.00;;;;5105363;28;20279;-69
2022/03/14 02:16:00;;;;;;;3.37;2.57;;;;;11.60;101297.00;;;;5098783;28;20701;-69
2022/03/14 02:18:46;;;;;;;3.33;2.10;;;;;11.60;101309.00;;;;5101652;28;20219;-69
2022/03/14 02:21:34;;;;;;;3.37;2.27;;;;;11.50;101306.00;;;;5099239;28;20311;-69
2022/03/14 02:24:20;;;;;;;3.20;2.30;;;;;11.40;101306.00;;;;5087427;28;20223;-69
2022/03/14 02:27:07;;;;;;;3.70;2.40;;;;;11.50;101310.00;;;;5105592;28;20933;-69
2022/03/14 02:29:53;;;;;;;3.17;2.40;;;;;11.40;101320.00;;;;5105395;28;20233;-68
2022/03/14 02:32:41;;;;;;;3.83;2.40;;;;;11.40;101309.00;;;;5089027;28;20232;-71
2022/03/14 02:35:28;;;;;;;3.07;2.30;;;;;11.40;101306.00;;;;5094127;28;20238;-70
2022/03/14 02:38:19;;;;;;;3.63;2.43;;;;;11.40;101306.00;;;;5105717;28;20219;-69
2022/03/14 02:41:05;;;;;;;3.43;2.27;;;;;11.20;101303.00;;;;5105642;27;20226;-69
2022/03/14 02:43:51;;;;;;;3.97;2.87;;;;;11.20;101315.00;;;;5105637;28;20297;-67
2022/03/14 02:46:38;;;;;;;3.73;2.33;;;;;11.10;101313.00;;;;5091279;28;20226;-67
2022/03/14 02:49:24;;;;;;;4.03;2.60;;;;;11.20;101317.00;;;;5090424;28;20395;-69
2022/03/14 02:52:11;;;;;;;4.40;2.50;;;;;11.10;101315.00;;;;5090401;28;20277;-69
2022/03/14 02:54:58;;;;;;;3.97;2.70;;;;;11.00;101315.00;;;;5090201;28;20222;-69
2022/03/14 02:57:45;;;;;;;3.33;2.40;;;;;11.10;101322.00;;;;5106053;28;20579;-71
2022/03/14 03:00:31;;;;;;;5.13;2.90;;;;;11.10;101336.00;;;;5094625;28;20226;-69
2022/03/14 03:03:18;;;;;;;2.87;2.30;;;;;11.10;101328.00;;;;5092717;28;20251;-69
2022/03/14 03:06:12;;;;;;;3.87;2.57;;;;;11.00;101336.00;;;;5098936;28;20227;-69
2022/03/14 03:08:58;;;;;;;4.50;2.60;;;;;11.00;101344.00;;;;5104428;28;20235;-67
2022/03/14 03:11:46;;;;;;;2.93;2.60;;;;;10.90;101348.00;;;;5104014;28;20257;-69
2022/03/14 03:14:33;;;;;;;4.00;2.37;;;;;10.90;101364.00;;;;5091621;28;20218;-67
2022/03/14 03:17:21;;;;;;;3.37;2.50;;;;;10.90;101363.00;;;;5102030;28;20219;-67
2022/03/14 03:20:08;;;;;;;4.00;2.73;;;;;10.90;101369.00;;;;5098439;28;20230;-68
2022/03/14 03:22:55;;;;;;;5.37;3.10;;;;;10.80;101372.00;;;;5104478;28;20870;-69
2022/03/14 03:25:41;;;;;;;3.57;2.77;;;;;10.80;101372.00;;;;5104967;28;20242;-68
2022/03/14 03:28:35;;;;;;;3.60;2.47;;;;;10.80;101378.00;;;;5091986;28;20218;-69
2022/03/14 03:31:21;;;;;;;5.70;2.70;;;;;10.90;101378.00;;;;5087913;28;20302;-65
2022/03/14 03:34:08;;;;;;;4.97;2.90;;;;;10.80;101385.00;;;;5104318;28;20244;-69
2022/03/14 03:36:54;;;;;;;3.97;2.87;;;;;10.80;101385.00;;;;5066583;28;20232;-69
2022/03/14 03:39:41;;;;;;;4.40;2.77;;;;;10.70;101401.00;;;;5067822;28;20359;-69
2022/03/14 03:42:27;;;;;;;5.73;3.33;;;;;10.60;101403.00;;;;5065478;28;20294;-69
2022/03/14 03:45:14;;;;;;;7.30;3.50;;;;;10.60;101406.00;;;;5077708;28;20235;-67
2022/03/14 03:48:01;;;;;;;6.73;4.03;;;;;10.60;101411.00;;;;5103922;28;20230;-69
2022/03/14 03:50:53;;;;;;;5.67;3.80;;;;;10.70;101411.00;;;;5081715;28;20298;-67
2022/03/14 03:53:39;;;;;;;4.23;3.30;;;;;10.50;101413.00;;;;5080196;28;20227;-68
2022/03/14 03:56:26;;;;;;;5.90;3.60;;;;;10.50;101420.00;;;;5080793;28;20963;-68
2022/03/14 03:59:12;;;;;;;5.13;4.20;;;;;10.60;101434.00;;;;5090423;28;20226;-68
2022/03/14 04:02:01;;;;;;;8.97;4.10;;;;;10.60;101434.00;;;;5100335;28;20748;-68
2022/03/14 04:04:49;;;;;;;7.10;4.23;;;;;10.60;101431.00;;;;5100994;28;20994;-68
2022/03/14 04:07:35;;;;;;;7.57;4.43;;;;;10.60;101446.00;;;;5091338;28;20237;-68
2022/03/14 04:10:21;;;;;;;9.00;4.73;;;;;10.50;101442.00;;;;5086339;28;20242;-68
2022/03/14 04:13:08;;;;;;;7.77;4.20;;;;;10.40;101445.00;;;;5073821;28;20366;-69
2022/03/14 04:15:54;;;;;;;6.17;4.20;;;;;10.40;101450.00;;;;5084538;28;20308;-67
2022/03/14 04:18:42;;;;;;;8.97;4.07;;;;;10.40;101468.00;;;;5088586;28;20227;-69
2022/03/14 04:21:29;;;;;;;7.00;4.43;;;;;10.30;101459.00;;;;5103829;28;20276;-67
2022/03/14 04:24:16;;;;;;;8.03;5.10;;;;;10.40;101468.00;;;;5108546;27;20304;-67
2022/03/14 04:27:02;;;;;;;12.10;5.87;;;;;10.40;101473.00;;;;5105338;27;20235;-69
2022/03/14 04:29:48;;;;;;;8.63;5.47;;;;;10.30;101471.00;;;;5085097;28;20232;-65
2022/03/14 04:32:34;;;;;;;11.00;6.27;;;;;10.30;101480.00;;;;5074267;28;20247;-68
2022/03/14 04:35:22;;;;;;;11.93;6.07;;;;;10.40;101492.00;;;;5085084;28;20582;-69
2022/03/14 04:38:09;;;;;;;12.00;6.60;;;;;10.40;101486.00;;;;5082947;28;20227;-68
2022/03/14 04:40:56;;;;;;;11.37;6.50;;;;;10.40;101489.00;;;;5094109;28;20261;-70
2022/03/14 04:43:42;;;;;;;11.23;6.27;;;;;10.40;101490.00;;;;5098614;28;20242;-69
2022/03/14 04:46:29;;;;;;;10.53;6.00;;;;;10.20;101483.00;;;;5104773;28;20234;-68
2022/03/14 04:49:15;;;;;;;13.60;6.97;;;;;10.30;101484.00;;;;5105227;28;20227;-69
2022/03/14 04:52:04;;;;;;;9.70;6.47;;;;;10.30;101486.00;;;;5107909;28;20811;-69
2022/03/14 04:54:51;;;;;;;12.87;7.33;;;;;10.30;101503.00;;;;5108039;28;20234;-69
2022/03/14 04:57:37;;;;;;;12.13;7.37;;;;;10.40;101506.00;;;;5091751;28;20222;-68
2022/03/14 05:00:23;;;;;;;13.17;7.80;;;;;10.40;101505.00;;;;5107460;28;20246;-69
2022/03/14 05:03:11;;;;;;;14.17;8.57;;;;;10.40;101521.00;;;;5107666;28;20590;-67
2022/03/14 05:05:57;;;;;;;12.90;7.43;;;;;10.40;101514.00;;;;5103819;27;20368;-69
2022/03/14 05:08:44;;;;;;;12.37;7.63;;;;;10.30;101508.00;;;;5095429;27;20696;-69
2022/03/14 05:11:32;;;;;;;13.23;7.57;;;;;10.30;101519.00;;;;5079387;28;20260;-68
2022/03/14 05:14:18;;;;;;;12.53;7.90;;;;;10.30;101526.00;;;;5083109;28;20367;-69
2022/03/14 05:17:05;;;;;;;14.93;7.63;;;;;10.20;101529.00;;;;5086296;28;20230;-67
2022/03/14 05:19:51;;;;;;;14.63;8.03;;;;;10.30;101527.00;;;;5061466;28;20231;-67
2022/03/14 05:22:42;;;;;;;15.17;8.20;;;;;10.30;101525.00;;;;5089503;28;20950;-69
2022/03/14 05:25:31;;;;;;;12.00;7.47;;;;;10.30;101536.00;;;;5099382;28;20716;-68
2022/03/14 05:28:17;;;;;;;12.17;7.20;;;;;10.40;101539.00;;;;5103945;27;20242;-69
2022/03/14 05:31:04;;;;;;;11.33;6.57;;;;;10.30;101528.00;;;;5104510;28;20226;-69
2022/03/14 05:33:50;;;;;;;14.63;7.33;;;;;10.30;101521.00;;;;5107504;27;20307;-68
2022/03/14 05:36:37;;;;;;;10.57;7.00;;;;;10.20;101518.00;;;;5100695;27;20604;-68
2022/03/14 05:39:23;;;;;;;14.23;7.77;;;;;10.20;101541.00;;;;5107034;27;20348;-70
2022/03/14 05:42:11;;;;;;;12.77;7.30;;;;;10.30;101538.00;;;;5099117;28;20219;-69
2022/03/14 05:45:01;;;;;;;12.43;7.80;;;;;10.30;101540.00;;;;5088009;28;20316;-69
2022/03/14 05:47:48;;;;;;;11.80;7.27;;;;;10.20;101521.00;;;;5092818;28;20230;-70
2022/03/14 05:50:34;;;;;;;9.83;6.70;;;;;10.40;101549.00;;;;5089132;28;20245;-68
2022/03/14 05:53:21;;;;;;;12.87;7.10;;;;;10.30;101547.00;;;;5104042;28;20273;-68
2022/03/14 05:56:07;;;;;;;13.23;7.67;;;;;10.30;101551.00;;;;5104139;28;20281;-68
2022/03/14 05:58:55;;;;;;;13.93;7.80;;;;;10.30;101551.00;;;;5087366;28;21072;-68
2022/03/14 06:01:47;;;;;;;14.90;8.30;;;;;10.40;101554.00;;;;5096313;28;20230;-68
2022/03/14 06:04:34;;;;;;;11.30;7.23;;;;;10.40;101561.00;;;;5097729;28;20295;-68
2022/03/14 06:07:21;;;;;;;13.57;7.37;;;;;10.40;101564.00;;;;5103603;28;20226;-68
2022/03/14 06:10:08;;;;;;;14.13;8.00;;;;;10.40;101568.00;;;;5105954;28;20716;-68
2022/03/14 06:12:55;;;;;;;14.57;8.77;;;;;10.30;101570.00;;;;5103504;28;20763;-68
2022/03/14 06:15:43;;;;;;;14.00;8.17;;;;;10.30;101580.00;;;;5095471;28;20349;-70
2022/03/14 06:18:30;;;;;;;16.00;8.97;;;;;10.30;101584.00;;;;5105524;28;20219;-70
2022/03/14 06:21:16;;;;;;;17.33;9.47;;;;;10.50;101594.00;;;;5088522;28;20312;-67
2022/03/14 06:24:02;;;;;;;18.23;10.13;;;;;10.40;101591.00;;;;5103493;28;20226;-68
2022/03/14 06:26:48;;;;;;;18.77;10.20;;;;;10.30;101588.00;;;;5096564;28;20257;-68
2022/03/14 06:29:34;;;;;;;18.80;10.27;;;;;10.40;101603.00;;;;5090206;28;20357;-68
2022/03/14 06:32:22;;;;;;;16.03;9.60;;;;;10.30;101602.00;;;;5105340;28;20234;-69
2022/03/14 06:35:13;;;;;;;18.33;10.63;;;;;10.30;101607.00;;;;5100372;28;20265;-68
2022/03/14 06:38:02;;;;;;;16.60;9.50;;;;;10.30;101609.00;;;;5105516;28;20235;-68
2022/03/14 06:40:48;;;;;;;18.00;10.03;;;;;10.30;101617.00;;;;5099077;28;20811;-68
2022/03/14 06:43:35;;;;;;;17.47;9.33;;;;;10.40;101619.00;;;;5090194;28;20288;-68
2022/03/14 06:46:22;;;;;;;18.17;10.43;;;;;10.30;101624.00;;;;5102643;28;20231;-69
2022/03/14 06:49:10;;;;;;;19.47;10.10;;;;;10.40;101626.00;;;;5105322;28;20716;-69
2022/03/14 06:51:56;;;;;;;19.53;9.97;;;;;10.50;101628.00;;;;5107334;28;20227;-68
2022/03/14 06:54:43;;;;;;;15.83;8.97;;;;;10.30;101629.00;;;;5094118;28;20230;-69
2022/03/14 06:57:30;;;;;;;14.67;7.97;;;;;10.40;101634.00;;;;5105405;28;20231;-68
2022/03/14 07:00:17;;;;;;;12.47;7.97;;;;;10.40;101633.00;;;;5082298;28;20223;-69
2022/03/14 07:03:03;;;;;;;13.87;7.70;;;;;10.40;101639.00;;;;5073112;28;20308;-68
2022/03/14 07:05:51;;;;;;;11.60;7.20;;;;;10.40;101644.00;;;;5082904;28;20274;-68
2022/03/14 07:08:38;;;;;;;11.87;6.43;;;;;10.30;101648.00;;;;5092665;27;20251;-69
2022/03/14 07:11:24;;;;;;;8.73;6.07;;;;;10.30;101649.00;;;;5102451;27;20264;-69
2022/03/14 07:14:11;;;;;;;9.80;6.03;;;;;10.30;101652.00;;;;5105533;28;20792;-69
2022/03/14 07:16:57;;;;;;;14.07;5.50;;;;;10.40;101659.00;;;;5091781;28;20216;-70
2022/03/14 07:19:45;;;;;;;10.10;5.60;;;;;10.40;101670.00;;;;5088260;28;20227;-68
2022/03/14 07:22:35;;;;;;;11.53;6.27;;;;;10.50;101670.00;;;;5101728;28;20227;-69
2022/03/14 07:25:24;;;;;;;9.77;5.57;;;;;10.50;101672.00;;;;5104689;28;20222;-69
2022/03/14 07:28:11;;;;;;;10.43;6.20;;;;;10.50;101668.00;;;;5104784;28;20593;-68
2022/03/14 07:30:57;;;;;;;11.00;5.63;;;;;10.40;101672.00;;;;5102050;28;20223;-69
2022/03/14 07:33:44;;;;;;;10.87;5.67;;;;;10.40;101679.00;;;;5087465;28;20615;-69
2022/03/14 07:36:30;;;;;;;9.37;5.60;;;;;10.30;101688.00;;;;5084842;28;20297;-69
2022/03/14 07:39:18;;;;;;;11.13;5.60;;;;;10.30;101689.00;;;;5081397;28;20227;-69
2022/03/14 07:42:04;;;;;;;9.83;5.57;;;;;10.40;101651.00;;;;5099835;28;20591;-69
2022/03/14 07:44:50;;;;;;;9.13;5.07;;;;;10.40;101703.00;;;;5092641;28;20386;-70
2022/03/14 07:47:38;;;;;;;6.83;4.47;;;;;10.40;101697.00;;;;5089300;28;20234;-69
2022/03/14 07:50:25;;;;;;;7.73;4.87;;;;;10.30;101712.00;;;;5102616;28;20379;-69
2022/03/14 07:53:11;;;;;;;7.37;5.00;;;;;10.30;101703.00;;;;5103672;28;20788;-67
2022/03/14 07:55:59;;;;;;;8.53;5.30;;;;;10.40;101709.00;;;;5093265;28;20220;-67
2022/03/14 07:58:45;;;;;;;8.23;5.00;;;;;10.30;101720.00;;;;5090665;28;20871;-68
2022/03/14 08:01:32;;;;;;;8.43;5.30;;;;;10.40;101726.00;;;;5102889;28;20686;-68
2022/03/14 08:04:18;;;;;;;10.07;5.37;;;;;10.40;101730.00;;;;5093773;28;20309;-68
2022/03/14 08:07:05;;;;;;;9.37;5.40;;;;;10.40;101729.00;;;;5104730;28;20376;-69
2022/03/14 08:09:52;;;;;;;9.77;5.60;;;;;10.30;101734.00;;;;5094302;28;20869;-67
2022/03/14 08:12:46;;;;;;;11.83;6.20;;;;;10.30;101733.00;;;;5088465;28;20272;-69
2022/03/14 08:15:35;;;;;;;9.77;5.97;;;;;10.30;101737.00;;;;5084992;28;20235;-69
2022/03/14 08:18:22;;;;;;;11.63;6.07;;;;;10.50;101763.00;;;;5079912;28;20289;-69
2022/03/14 08:21:09;;;;;;;7.87;5.53;;;;;10.30;101757.00;;;;5090684;28;20348;-69
2022/03/14 08:23:55;;;;;;;12.63;6.37;;;;;10.30;101759.00;;;;5100989;28;20704;-69
2022/03/14 08:26:43;;;;;;;11.30;6.20;;;;;10.60;101762.00;;;;5089109;28;20345;-68
2022/03/14 08:29:30;;;;;;;10.80;6.13;;;;;10.60;101755.00;;;;5084702;28;20231;-68
2022/03/14 08:32:17;;;;;;;13.17;6.30;;;;;10.50;101761.00;;;;5083575;28;20227;-69
2022/03/14 08:35:07;;;;;;;11.07;5.97;;;;;10.60;101756.00;;;;5083997;28;20264;-68
2022/03/14 08:37:59;;;;;;;14.27;6.80;;;;;10.70;101763.00;;;;5083643;28;20224;-66
2022/03/14 08:40:45;;;;;;;11.20;6.27;;;;;10.70;101769.00;;;;5073554;28;20641;-67
2022/03/14 08:43:32;;;;;;;12.30;6.93;;;;;10.70;101782.00;;;;5103593;28;20308;-68
2022/03/14 08:46:20;;;;;;;14.30;7.73;;;;;10.70;101793.00;;;;5100502;28;20233;-69
2022/03/14 08:49:07;;;;;;;11.23;7.10;;;;;10.80;101783.00;;;;5103660;28;20802;-69
2022/03/14 08:51:53;;;;;;;15.10;7.20;;;;;10.70;101794.00;;;;5091225;28;20237;-68
2022/03/14 08:54:39;;;;;;;12.57;7.00;;;;;10.90;101792.00;;;;5087994;28;20234;-68
2022/03/14 08:57:25;;;;;;;11.00;6.80;;;;;10.80;101794.00;;;;5100621;28;20239;-68
2022/03/14 09:00:13;;;;;;;13.47;7.33;;;;;11.00;101803.00;;;;5100341;28;20580;-68
2022/03/14 09:03:01;;;;;;;14.70;7.20;;;;;10.90;101816.00;;;;5083091;27;20243;-69
2022/03/14 09:05:47;;;;;;;10.90;7.00;;;;;11.00;101804.00;;;;5100723;28;20283;-68
2022/03/14 09:08:34;;;;;;;13.57;6.97;;;;;11.00;101816.00;;;;5107195;27;20558;-68
2022/03/14 09:11:20;;;;;;;12.90;7.27;;;;;11.10;101804.00;;;;5104606;27;20886;-68
2022/03/14 09:14:06;;;;;;;14.33;8.07;;;;;11.10;101810.00;;;;5107836;28;20230;-70
2022/03/14 09:16:53;;;;;;;12.43;7.43;;;;;11.20;101809.00;;;;5088971;28;20222;-69
2022/03/14 09:19:41;;;;;;;13.23;7.87;;;;;11.20;101805.00;;;;5104190;28;20276;-71
2022/03/14 09:22:28;;;;;;;17.43;8.03;;;;;11.20;101818.00;;;;5066860;28;20256;-70
2022/03/14 09:25:16;;;;;;;12.27;7.20;;;;;11.20;101821.00;;;;5052536;28;20245;-68
2022/03/14 09:28:04;;;;;;;12.37;7.27;;;;;11.20;101830.00;;;;5057375;28;20223;-71
2022/03/14 09:30:50;;;;;;;12.73;7.83;;;;;11.20;101825.00;;;;5058148;28;20247;-70
2022/03/14 09:33:36;;;;;;;13.30;8.33;;;;;11.20;101832.00;;;;5066868;28;20227;-69
2022/03/14 09:36:24;;;;;;;13.53;7.57;;;;;11.10;101847.00;;;;5065529;28;20239;-69
2022/03/14 09:39:14;;;;;;;13.43;6.93;;;;;11.10;101853.00;;;;5084848;28;20694;-68
2022/03/14 09:42:02;;;;;;;13.23;7.73;;;;;11.10;101843.00;;;;5105392;27;20234;-69
2022/03/14 09:44:53;;;;;;;16.53;8.37;;;;;11.10;101859.00;;;;5073722;28;20230;-70
2022/03/14 09:47:42;;;;;;;12.17;7.73;;;;;11.10;101870.00;;;;5085851;28;20836;-69
2022/03/14 09:50:32;;;;;;;13.27;7.47;;;;;11.20;101852.00;;;;5062593;28;20244;-69
2022/03/14 09:53:20;;;;;;;14.00;8.07;;;;;11.20;101859.00;;;;5067070;28;20294;-70
2022/03/14 09:56:06;;;;;;;15.77;7.80;;;;;11.40;101863.00;;;;5069652;28;20950;-69
2022/03/14 09:58:53;;;;;;;15.03;7.83;;;;;11.40;101870.00;;;;5076152;28;20279;-70
2022/03/14 10:01:39;;;;;;;12.80;7.77;;;;;11.50;101861.00;;;;5073874;28;20235;-68
2022/03/14 10:04:26;;;;;;;16.90;7.73;;;;;11.50;101875.00;;;;5084431;27;20717;-70
2022/03/14 10:07:12;;;;;;;16.13;8.50;;;;;11.50;101887.00;;;;5087622;28;20302;-69
2022/03/14 10:10:00;;;;;;;12.50;7.97;;;;;11.60;101892.00;;;;5081499;28;20902;-69
2022/03/14 10:12:52;;;;;;;15.57;8.10;;;;;11.50;101875.00;;;;5083183;28;20237;-69
2022/03/14 10:15:40;;;;;;;11.80;7.63;;;;;11.60;101897.00;;;;5070835;28;20227;-68
2022/03/14 10:18:26;;;;;;;17.80;8.60;;;;;11.50;101908.00;;;;5084939;28;20239;-68
2022/03/14 10:21:13;;;;;;;18.70;8.00;;;;;11.60;101905.00;;;;5078464;28;20853;-70
2022/03/14 10:24:04;;;;;;;13.43;7.77;;;;;11.60;101914.00;;;;5068228;28;20231;-69
2022/03/14 10:26:51;;;;;;;15.77;8.40;;;;;11.50;101909.00;;;;5062740;28;20220;-70
2022/03/14 10:29:38;;;;;;;14.40;7.93;;;;;11.40;101924.00;;;;5070208;28;21001;-69
2022/03/14 10:32:32;;;;;;;16.43;9.33;;;;;11.50;101929.00;;;;5084263;28;20369;-70
2022/03/14 10:35:20;;;;;;;15.23;8.40;;;;;11.50;101933.00;;;;5085123;28;20703;-69
2022/03/14 10:38:07;;;;;;;14.70;8.47;;;;;11.50;101927.00;;;;5079487;28;20223;-68
2022/03/14 10:40:57;;;;;;;16.87;8.67;;;;;11.60;101942.00;;;;5065454;28;20234;-66
2022/03/14 10:43:48;;;;;;;16.50;8.83;;;;;11.80;101924.00;;;;5069015;28;20293;-69
2022/03/14 10:46:38;;;;;;;15.00;8.00;;;;;11.80;101931.00;;;;5076805;28;20701;-69
2022/03/14 10:49:27;;;;;;;14.33;8.27;;;;;11.80;101933.00;;;;5092472;28;20283;-65
2022/03/14 10:52:17;;;;;;;14.67;8.30;;;;;11.80;101943.00;;;;5067035;28;20231;-68
2022/03/14 10:55:11;;;;;;;14.83;8.00;;;;;12.00;101947.00;;;;5088724;28;20355;-68
2022/03/14 10:58:11;;;;;;;15.53;8.07;;;;;12.10;101938.00;;;;5075116;28;20251;-68
2022/03/14 11:01:00;;;;;;;15.13;7.93;;;;;12.00;101939.00;;;;5093739;28;20224;-65
2022/03/14 11:03:47;;;;;;;16.83;8.27;;;;;11.90;101947.00;;;;5065607;28;20278;-71
2022/03/14 11:06:37;;;;;;;14.40;7.40;;;;;11.90;101947.00;;;;5061259;28;20711;-68
2022/03/14 11:09:37;;;;;;;14.47;7.63;;;;;12.00;101954.00;;;;5053108;28;20938;-70
2022/03/14 11:12:25;;;;;;;15.73;6.93;;;;;12.00;101953.00;;;;5051920;28;20348;-71
2022/03/14 11:15:13;;;;;;;12.53;6.43;;;;;12.30;101941.00;;;;5057813;28;20232;-69
2022/03/14 11:18:01;;;;;;;13.43;7.07;;;;;12.60;101949.00;;;;5055568;28;20231;-71
2022/03/14 11:20:52;;;;;;;13.90;6.97;;;;;12.80;101947.00;;;;5074631;28;20296;-70
2022/03/14 11:23:40;;;;;;;12.73;6.93;;;;;12.90;101946.00;;;;5075146;28;20227;-71
2022/03/14 11:26:27;;;;;;;10.53;6.80;;;;;13.00;101940.00;;;;5066343;28;20768;-69
2022/03/14 11:29:13;;;;;;;11.40;6.57;;;;;13.20;101958.00;;;;5071075;28;20236;-71
2022/03/14 11:32:00;;;;;;;11.07;5.70;;;;;13.60;101944.00;;;;5045867;28;20233;-73
2022/03/14 11:35:09;;;;;;;15.90;6.20;;;;;13.80;101954.00;;;;5068786;28;20223;-69
2022/03/14 11:37:57;;;;;;;9.13;5.50;;;;;14.10;101948.00;;;;5054065;28;20229;-69
2022/03/14 11:40:43;;;;;;;9.97;5.30;;;;;14.20;101955.00;;;;5054812;28;20755;-68
2022/03/14 11:43:30;;;;;;;11.30;5.60;;;;;14.30;101952.00;;;;5054102;28;20656;-69
2022/03/14 11:46:17;;;;;;;8.40;4.97;;;;;14.40;101947.00;;;;5053074;28;20236;-68
2022/03/14 11:49:13;;;;;;;8.20;5.67;;;;;14.30;101958.00;;;;5052491;28;20331;-69
2022/03/14 11:52:10;;;;;;;8.00;5.43;;;;;14.10;101956.00;;;;5059298;28;20814;-70
2022/03/14 11:54:58;;;;;;;10.10;5.27;;;;;14.40;101962.00;;;;5077889;28;20228;-70
2022/03/14 11:57:44;;;;;;;8.07;5.30;;;;;14.50;101959.00;;;;5075211;28;20224;-68
2022/03/14 12:00:35;;;;;;;8.93;5.40;;;;;14.70;101948.00;;;;5077894;28;20267;-69
2022/03/14 12:03:38;;;;;;;7.13;5.00;;;;;14.90;101947.00;;;;5048225;28;20238;-68
2022/03/14 12:06:57;;;;;;;10.17;4.70;;;;;14.80;101958.00;;;;5067736;28;20238;-68
2022/03/14 12:09:48;;;;;;;8.63;5.30;;;;;14.50;101946.00;;;;5080828;28;20604;-68
2022/03/14 12:12:34;;;;;;;11.63;5.63;;;;;14.80;101938.00;;;;5089839;28;20239;-71
2022/03/14 12:15:38;;;;;;;11.87;5.90;;;;;15.00;101960.00;;;;5110957;28;20241;-70
2022/03/14 12:18:38;;;;;;;13.03;5.40;;;;;15.10;101956.00;;;;5101184;28;20229;-69
2022/03/14 12:21:52;;;;;;;10.70;6.00;;;;;15.10;101954.00;;;;5127979;28;20224;-70
2022/03/14 12:24:48;;;;;;;8.80;5.23;;;;;15.40;101961.00;;;;5132804;28;20238;-71
2022/03/14 12:27:35;;;;;;;10.77;5.60;;;;;15.50;101940.00;;;;5129824;28;20256;-70
2022/03/14 12:30:34;;;;;;;12.50;5.67;;;;;15.20;101959.00;;;;5126332;28;20235;-71
2022/03/14 12:33:31;;;;;;;9.47;5.10;;;;;14.90;101965.00;;;;5118445;28;20229;-70
2022/03/14 12:36:33;;;;;;;12.90;5.67;;;;;14.60;101957.00;;;;5114821;28;20226;-69
2022/03/14 12:39:25;;;;;;;9.87;5.33;;;;;14.30;101973.00;;;;5110029;28;20261;-71
2022/03/14 12:42:24;;;;;;;13.73;6.37;;;;;14.00;101978.00;;;;5076755;28;20285;-70
2022/03/14 12:45:18;;;;;;;11.40;5.87;;;;;13.80;101980.00;;;;5070216;28;20326;-70
2022/03/14 12:48:17;;;;;;;11.53;5.87;;;;;13.80;101993.00;;;;5058817;28;20231;-71
2022/03/14 12:51:05;;;;;;;13.00;5.73;;;;;13.40;101996.00;;;;5051476;28;20625;-70
2022/03/14 12:53:53;;;;;;;12.63;5.87;;;;;13.40;101984.00;;;;5050677;28;20230;-69
2022/03/14 12:56:40;;;;;;;9.27;5.23;;;;;13.40;101991.00;;;;5049538;28;20231;-69
2022/03/14 12:59:28;;;;;;;9.53;5.27;;;;;13.30;101985.00;;;;5069952;28;20311;-70
2022/03/14 13:02:22;;;;;;;10.27;5.50;;;;;13.10;101990.00;;;;5070428;28;21020;-70
2022/03/14 13:05:10;;;;;;;8.50;5.57;;;;;13.20;101992.00;;;;5055918;28;20237;-71
2022/03/14 13:08:03;;;;;;;10.73;5.60;;;;;13.20;102002.00;;;;5047983;28;20225;-71
2022/03/14 13:10:51;;;;;;;10.20;5.63;;;;;13.30;102004.00;;;;5058490;28;20296;-67
2022/03/14 13:13:38;;;;;;;12.07;6.00;;;;;14.00;101995.00;;;;5078424;28;20220;-69
2022/03/14 13:16:28;;;;;;;12.67;7.33;;;;;14.20;102000.00;;;;5100609;27;20269;-69
2022/03/14 13:19:17;;;;;;;13.57;5.97;;;;;13.90;102010.00;;;;5098563;27;20223;-70
2022/03/14 13:22:12;;;;;;;11.40;5.77;;;;;14.00;102009.00;;;;5094177;27;20237;-67
2022/03/14 13:24:58;;;;;;;13.63;5.60;;;;;13.90;102013.00;;;;5074562;28;20236;-70
2022/03/14 13:27:53;;;;;;;10.93;5.40;;;;;13.80;102015.00;;;;5086873;28;20687;-69
2022/03/14 13:30:42;;;;;;;11.73;5.83;;;;;13.70;102020.00;;;;5103876;28;20259;-70
2022/03/14 13:33:33;;;;;;;9.20;5.83;;;;;13.70;102018.00;;;;5086060;28;21012;-70
2022/03/14 13:36:20;;;;;;;12.13;5.50;;;;;14.00;102012.00;;;;5084730;28;20232;-68
2022/03/14 13:39:08;;;;;;;12.80;5.67;;;;;14.70;102028.00;;;;5063179;28;20238;-66
2022/03/14 13:41:57;;;;;;;10.77;6.07;;;;;15.00;102022.00;;;;5088785;28;20236;-71
2022/03/14 13:44:43;;;;;;;11.47;5.37;;;;;15.20;102016.00;;;;5079211;28;20231;-69
2022/03/14 13:47:30;;;;;;;9.40;5.80;;;;;15.20;102023.00;;;;5054094;28;20324;-70